KHZD

Details ICAO KHZD
Name CARROLL CO
Region United States
Timezone America/Chicago (UTC-6.0)
Plans Departing 1
Arriving 2
Stats Elevation 496 ft / 151 m (AMSL)
Location 36.090631° -88.462945°
Runways 1
Magnetic Variation 2.544° W
Sunrise 2017-12-10 12:55:26 UTC / 2017-12-10 06:55:26 Local
Sunset 2017-12-10 22:41:00 UTC / 2017-12-10 16:41:00 Local
Advertisement - Login to hide

Runways

ID Width Length Bearing (true) Bearing (mag) Surface Threshold Offset Overrun Length
01 100 ft / 30 m 5,512 ft / 1,680 m 12.14° 14.68° Asphalt 0 ft / 0 m 0 ft / 0 m
19 100 ft / 30 m 5,512 ft / 1,680 m 192.15° 194.69° Asphalt 0 ft / 0 m 0 ft / 0 m

Map

Weather


0- 5 10 15 20 25 30 35+ Temperature / ° C

Clouds and Precipitation
Forecast for 2017-12-11 06:00 UTC. Updated an hour ago

Ground ~20,000 ft ~40,000 ft Winds

METAR

KHZD 110355Z AUTO 23005KT 10SM CLR 07/M02 A3016 RMK A01

TAF

Not found

Frequencies

Recorded 133.27 MHz AWOS 3
Unicom 122.80 MHz CTAF/UNICOM
Warning: Do not use this data for real-world aviation or navigation. No guarantee of current accuracy is given.